Time;durP1;ratioP1;P1;durP2;ratioP2;P2;SDS_P1;SDS_P2;PMS_P1;PMS_P2;Temp;Humidity;BMP_temperature;BMP_pressure;BME280_temperature;BME280_humidity;BME280_pressure;Samples;Min_cycle;Max_cycle;Signal;HPM_P1;HPM_P2
2022/02/17 00:00:46;;;;;;;18.83;2.45;;;12.00;99.90;;;;;;5027814;28;20049;-38
2022/02/17 00:03:11;;;;;;;24.20;4.78;;;12.10;99.90;;;;;;5024541;28;20030;-39
2022/02/17 00:05:38;;;;;;;19.58;3.75;;;12.10;99.90;;;;;;5032813;28;20036;-38
2022/02/17 00:08:04;;;;;;;28.58;3.05;;;12.00;99.90;;;;;;5029722;28;20042;-39
2022/02/17 00:10:31;;;;;;;22.90;3.20;;;11.90;99.90;;;;;;5013058;28;20032;-40
2022/02/17 00:12:58;;;;;;;10.93;2.00;;;11.90;99.90;;;;;;5022462;28;20022;-39
2022/02/17 00:15:28;;;;;;;16.38;2.33;;;11.90;99.90;;;;;;5025872;28;20577;-39
2022/02/17 00:17:55;;;;;;;19.45;3.05;;;11.80;99.90;;;;;;5030321;28;20034;-38
2022/02/17 00:20:21;;;;;;;21.13;2.05;;;11.80;99.90;;;;;;5020517;28;20025;-39
2022/02/17 00:22:47;;;;;;;13.52;2.35;;;11.70;99.90;;;;;;5027835;28;20042;-38
2022/02/17 00:25:12;;;;;;;12.25;2.42;;;11.80;99.90;;;;;;5025509;28;20678;-42
2022/02/17 00:27:39;;;;;;;21.77;3.17;;;11.80;99.90;;;;;;5015122;28;20037;-39
2022/02/17 00:30:06;;;;;;;21.77;2.85;;;11.90;99.90;;;;;;5027092;28;20036;-42
2022/02/17 00:32:32;;;;;;;14.95;2.80;;;11.80;99.90;;;;;;5024369;28;20049;-38
2022/02/17 00:34:58;;;;;;;13.45;3.10;;;11.80;99.90;;;;;;5027801;28;20026;-39
2022/02/17 00:37:23;;;;;;;19.70;2.70;;;11.80;99.90;;;;;;5015735;28;20037;-38
2022/02/17 00:39:49;;;;;;;17.20;2.00;;;11.80;99.90;;;;;;5015098;28;20037;-39
2022/02/17 00:42:15;;;;;;;14.80;2.85;;;11.60;99.90;;;;;;5015469;28;20038;-46
2022/02/17 00:44:42;;;;;;;8.40;1.52;;;11.30;99.90;;;;;;5029186;28;20034;-37
2022/02/17 00:47:10;;;;;;;13.63;1.65;;;11.00;99.90;;;;;;5032155;28;20028;-38
2022/02/17 00:49:36;;;;;;;9.18;1.67;;;10.70;99.90;;;;;;5034055;28;20116;-38
2022/02/17 00:52:02;;;;;;;10.13;1.95;;;10.60;99.90;;;;;;5030629;28;20083;-38
2022/02/17 00:54:28;;;;;;;6.47;1.58;;;10.60;99.90;;;;;;5031544;28;20021;-38
2022/02/17 00:56:54;;;;;;;10.07;3.20;;;10.70;99.90;;;;;;5032355;28;20030;-37
2022/02/17 00:59:19;;;;;;;8.25;1.58;;;10.60;99.90;;;;;;5031272;28;20038;-37
2022/02/17 01:01:46;;;;;;;15.90;3.90;;;10.60;99.90;;;;;;5031125;28;20474;-37
2022/02/17 01:04:13;;;;;;;12.33;2.30;;;10.60;99.90;;;;;;5031275;28;20040;-38
2022/02/17 01:06:39;;;;;;;12.73;2.63;;;10.60;99.90;;;;;;5030961;28;20497;-39
2022/02/17 01:09:06;;;;;;;17.83;1.98;;;10.60;99.90;;;;;;5032024;28;20029;-38
2022/02/17 01:11:32;;;;;;;12.77;1.60;;;10.50;99.90;;;;;;5033409;28;20111;-34
2022/02/17 01:13:58;;;;;;;11.88;1.55;;;10.40;99.90;;;;;;5033646;28;20271;-37
2022/02/17 01:16:24;;;;;;;4.45;1.38;;;10.40;99.90;;;;;;5035785;28;20029;-37
2022/02/17 01:18:49;;;;;;;4.63;1.52;;;10.50;99.90;;;;;;5034455;28;20033;-37
2022/02/17 01:21:15;;;;;;;15.60;2.08;;;10.40;99.90;;;;;;5035755;28;20029;-38
2022/02/17 01:23:40;;;;;;;8.48;1.52;;;10.40;99.90;;;;;;5034240;28;20524;-64
2022/02/17 01:26:06;;;;;;;7.53;1.67;;;10.50;99.90;;;;;;5018712;28;20036;-39
2022/02/17 01:28:33;;;;;;;17.25;2.85;;;10.40;99.90;;;;;;5021993;28;20053;-61
2022/02/17 01:30:59;;;;;;;9.65;2.13;;;10.40;99.90;;;;;;5034616;28;20505;-39
2022/02/17 01:33:25;;;;;;;18.85;2.15;;;10.40;99.90;;;;;;5028115;28;20029;-38
2022/02/17 01:35:50;;;;;;;27.15;2.58;;;10.40;99.90;;;;;;5023772;28;20084;-38
2022/02/17 01:38:16;;;;;;;24.58;3.13;;;10.30;99.90;;;;;;5035066;28;20151;-36
2022/02/17 01:40:41;;;;;;;14.90;2.20;;;10.40;99.90;;;;;;5031317;28;20374;-39
2022/02/17 01:43:07;;;;;;;19.83;3.88;;;10.40;99.90;;;;;;5034672;28;20033;-47
2022/02/17 01:45:33;;;;;;;12.40;2.17;;;10.50;99.90;;;;;;5035357;28;20029;-38
2022/02/17 01:47:58;;;;;;;15.15;1.88;;;10.50;99.90;;;;;;5033017;28;20036;-36
2022/02/17 01:50:24;;;;;;;15.80;1.90;;;10.50;99.90;;;;;;5026956;28;20036;-39
2022/02/17 01:52:49;;;;;;;17.65;3.53;;;10.50;99.90;;;;;;5029755;28;20053;-39
2022/02/17 01:55:15;;;;;;;11.48;2.33;;;10.50;99.90;;;;;;5025001;28;20053;-39
2022/02/17 01:57:41;;;;;;;18.77;2.25;;;10.60;99.90;;;;;;5015436;28;20058;-46
2022/02/17 02:00:08;;;;;;;12.75;1.95;;;10.60;99.90;;;;;;5032143;28;20417;-37
2022/02/17 02:02:34;;;;;;;16.53;2.83;;;10.60;99.90;;;;;;5034557;28;20029;-37
2022/02/17 02:05:00;;;;;;;22.13;2.40;;;10.60;99.90;;;;;;5034885;28;20076;-37
2022/02/17 02:07:25;;;;;;;21.00;2.70;;;10.60;99.90;;;;;;5034891;28;20033;-38
2022/02/17 02:09:54;;;;;;;22.38;2.67;;;10.70;99.90;;;;;;5027634;28;20021;-37
2022/02/17 02:12:19;;;;;;;19.33;3.17;;;10.70;99.90;;;;;;5032377;28;20501;-39
2022/02/17 02:14:53;;;;;;;10.05;2.65;;;10.70;99.90;;;;;;5029842;28;20137;-38
2022/02/17 02:17:21;;;;;;;14.45;2.47;;;10.70;99.90;;;;;;5013906;28;20096;-38
2022/02/17 02:19:46;;;;;;;23.85;2.42;;;10.70;99.90;;;;;;5014921;28;20581;-39
2022/02/17 02:22:12;;;;;;;16.65;2.30;;;10.70;99.90;;;;;;5012812;28;20065;-42
2022/02/17 02:24:38;;;;;;;12.60;2.55;;;10.70;99.90;;;;;;5014713;28;20179;-38
2022/02/17 02:27:16;;;;;;;18.17;2.60;;;10.70;99.90;;;;;;5023637;28;20040;-38
2022/02/17 02:29:42;;;;;;;;;;;10.80;99.90;;;;;;5032807;28;20034;-37
2022/02/17 02:32:08;;;;;;;13.75;1.92;;;10.70;99.90;;;;;;5034393;28;19913;-38
2022/02/17 02:34:34;;;;;;;17.90;2.42;;;10.70;99.90;;;;;;5029965;28;20022;-36
2022/02/17 02:37:00;;;;;;;11.07;2.53;;;10.70;99.90;;;;;;5023903;28;20033;-38
2022/02/17 02:39:26;;;;;;;11.48;2.42;;;10.60;99.90;;;;;;5028573;28;20474;-37
2022/02/17 02:41:51;;;;;;;20.30;3.33;;;10.50;99.90;;;;;;5014512;28;20038;-37
2022/02/17 02:44:36;;;;;;;16.13;2.35;;;10.50;99.90;;;;;;5014518;28;20022;-38
2022/02/17 02:47:03;;;;;;;14.90;2.67;;;10.40;99.90;;;;;;5023293;28;20104;-39
2022/02/17 02:49:29;;;;;;;11.73;2.17;;;10.40;99.90;;;;;;5022035;28;20029;-39
2022/02/17 02:51:54;;;;;;;13.80;2.83;;;10.50;99.90;;;;;;5025365;28;20386;-38
2022/02/17 02:54:20;;;;;;;24.65;2.85;;;10.40;99.90;;;;;;5014271;28;20385;-39
2022/02/17 02:56:46;;;;;;;14.60;2.15;;;10.50;99.90;;;;;;5018980;28;20083;-37
2022/02/17 02:59:11;;;;;;;22.63;3.65;;;10.50;99.90;;;;;;5033920;28;20083;-40
2022/02/17 03:01:37;;;;;;;23.13;3.15;;;10.50;99.90;;;;;;5033989;28;20057;-38
2022/02/17 03:04:03;;;;;;;11.85;1.88;;;10.50;99.90;;;;;;5033829;28;20026;-39
2022/02/17 03:06:29;;;;;;;18.90;2.58;;;10.40;99.90;;;;;;5033584;28;20124;-39
2022/02/17 03:08:56;;;;;;;23.73;3.50;;;10.40;99.90;;;;;;5033875;28;20524;-53
2022/02/17 03:11:23;;;;;;;21.27;2.77;;;10.20;99.90;;;;;;5033733;28;20038;-40
2022/02/17 03:13:48;;;;;;;13.55;2.22;;;10.20;99.90;;;;;;5033671;28;20076;-55
2022/02/17 03:16:14;;;;;;;25.80;4.78;;;10.20;99.90;;;;;;5032884;28;20501;-40
2022/02/17 03:18:40;;;;;;;24.98;3.60;;;10.10;99.90;;;;;;5033601;28;20025;-40
2022/02/17 03:21:06;;;;;;;16.90;1.67;;;10.00;99.90;;;;;;5033521;28;20032;-39
2022/02/17 03:23:32;;;;;;;28.67;2.97;;;9.90;99.90;;;;;;5018485;28;20041;-39
2022/02/17 03:26:00;;;;;;;12.55;1.98;;;9.90;99.90;;;;;;5015131;28;20532;-41
2022/02/17 03:28:25;;;;;;;13.52;2.25;;;9.90;99.90;;;;;;5025222;28;20046;-42
2022/02/17 03:30:51;;;;;;;19.65;2.20;;;9.90;99.90;;;;;;5027594;28;20037;-40
2022/02/17 03:33:17;;;;;;;27.33;2.85;;;9.90;99.90;;;;;;5016647;28;20084;-39
2022/02/17 03:35:43;;;;;;;13.30;2.20;;;9.80;99.90;;;;;;5031927;28;20026;-38
2022/02/17 03:38:08;;;;;;;18.45;2.20;;;9.80;99.90;;;;;;5018283;28;20029;-38
2022/02/17 03:40:34;;;;;;;23.35;2.47;;;9.80;99.90;;;;;;5021527;28;20072;-39
2022/02/17 03:43:00;;;;;;;13.13;2.33;;;9.80;99.90;;;;;;5029825;28;20544;-38
2022/02/17 03:45:25;;;;;;;21.63;3.00;;;9.80;99.90;;;;;;5030435;28;20037;-41
2022/02/17 03:47:51;;;;;;;12.80;1.95;;;9.80;99.90;;;;;;5030925;28;20033;-37
2022/02/17 03:50:17;;;;;;;18.23;2.80;;;9.80;99.90;;;;;;5021481;28;20036;-46
2022/02/17 03:52:42;;;;;;;23.00;2.28;;;9.80;99.90;;;;;;5024599;28;20033;-39
2022/02/17 03:55:10;;;;;;;23.73;2.40;;;9.80;99.90;;;;;;5032431;28;20022;-38
2022/02/17 03:57:35;;;;;;;27.90;3.97;;;9.80;99.90;;;;;;5010771;28;20065;-38
2022/02/17 04:00:03;;;;;;;17.52;2.92;;;9.80;99.90;;;;;;5020527;28;20049;-38
2022/02/17 04:02:29;;;;;;;34.45;2.72;;;9.80;99.90;;;;;;5032089;28;20037;-38
2022/02/17 04:04:55;;;;;;;16.60;2.92;;;9.80;99.90;;;;;;5022674;28;20144;-38
2022/02/17 04:07:20;;;;;;;20.00;3.58;;;9.80;99.90;;;;;;5028022;28;20026;-39
2022/02/17 04:09:46;;;;;;;24.15;2.85;;;9.70;99.90;;;;;;5023667;28;20390;-43
2022/02/17 04:12:12;;;;;;;17.13;2.67;;;9.80;99.90;;;;;;5032537;28;20029;-39
2022/02/17 04:14:38;;;;;;;15.10;2.20;;;9.80;99.90;;;;;;5031203;28;20045;-39
2022/02/17 04:17:06;;;;;;;22.05;2.72;;;9.70;99.90;;;;;;5032632;28;20022;-39
2022/02/17 04:19:32;;;;;;;19.00;1.77;;;9.80;99.90;;;;;;5028866;28;20018;-37
2022/02/17 04:21:58;;;;;;;18.00;3.33;;;9.80;99.90;;;;;;5022330;28;20040;-44
2022/02/17 04:24:24;;;;;;;16.98;2.25;;;9.70;99.90;;;;;;5022836;28;20107;-42
2022/02/17 04:26:49;;;;;;;24.83;3.33;;;9.70;99.90;;;;;;5029358;28;20030;-40
2022/02/17 04:29:16;;;;;;;15.50;2.55;;;9.80;99.90;;;;;;5032201;28;20401;-39
2022/02/17 04:31:41;;;;;;;21.92;2.95;;;9.80;99.90;;;;;;5027672;28;20029;-37
2022/02/17 04:34:07;;;;;;;15.98;2.53;;;9.80;99.90;;;;;;5016487;28;20052;-38
2022/02/17 04:36:32;;;;;;;19.13;2.45;;;9.70;99.90;;;;;;5030465;28;20049;-38
2022/02/17 04:38:59;;;;;;;13.65;2.72;;;9.70;99.90;;;;;;5023638;28;20022;-55
2022/02/17 04:44:09;;;;;;;21.75;3.10;;;9.70;99.90;;;;;;5022278;28;20544;-40
2022/02/17 04:46:34;;;;;;;17.88;2.88;;;9.60;99.90;;;;;;5033285;28;20025;-39
2022/02/17 04:49:00;;;;;;;7.78;1.55;;;9.60;99.90;;;;;;5016876;28;20376;-39
2022/02/17 04:51:25;;;;;;;20.48;3.30;;;9.60;99.90;;;;;;5016395;28;20026;-37
2022/02/17 04:53:51;;;;;;;23.88;3.17;;;9.70;99.90;;;;;;5024754;28;20033;-39
2022/02/17 04:56:17;;;;;;;21.33;3.42;;;9.70;99.90;;;;;;5035078;28;20108;-39
2022/02/17 04:58:42;;;;;;;19.13;2.63;;;9.70;99.90;;;;;;5036168;28;20071;-39
2022/02/17 05:01:08;;;;;;;17.17;2.20;;;9.70;99.90;;;;;;5035956;28;20474;-40
2022/02/17 05:03:34;;;;;;;22.00;3.03;;;9.80;99.90;;;;;;5034100;28;20030;-37
2022/02/17 05:06:02;;;;;;;17.23;2.60;;;9.80;99.90;;;;;;5036258;28;20028;-40
2022/02/17 05:08:28;;;;;;;;;;;9.80;99.90;;;;;;5023460;28;20077;-38
2022/02/17 05:10:54;;;;;;;18.45;3.03;;;9.80;99.90;;;;;;5029915;28;19999;-36
2022/02/17 05:13:19;;;;;;;18.00;2.58;;;9.60;99.90;;;;;;5022499;28;20140;-37
2022/02/17 05:15:45;;;;;;;21.35;2.53;;;9.20;99.90;;;;;;5023346;28;20505;-39
2022/02/17 05:18:11;;;;;;;31.25;3.85;;;8.90;99.90;;;;;;5035119;28;20517;-38
2022/02/17 05:20:37;;;;;;;23.48;2.60;;;8.90;99.90;;;;;;5026538;28;20382;-37
2022/02/17 05:23:02;;;;;;;22.73;3.08;;;8.80;99.90;;;;;;5025865;28;20486;-37
2022/02/17 05:25:28;;;;;;;12.70;2.60;;;8.80;99.90;;;;;;5030484;28;20026;-57
2022/02/17 05:27:54;;;;;;;26.77;2.33;;;8.80;99.90;;;;;;5026121;28;20065;-42
2022/02/17 05:30:19;;;;;;;16.45;1.77;;;8.80;99.90;;;;;;5035114;28;20404;-37
2022/02/17 05:32:46;;;;;;;9.73;1.80;;;8.80;99.90;;;;;;5035388;28;20030;-38
2022/02/17 05:35:12;;;;;;;17.42;1.92;;;8.80;99.90;;;;;;5035346;28;20473;-37
2022/02/17 05:37:38;;;;;;;13.40;1.75;;;8.80;99.90;;;;;;5023657;28;20464;-38
2022/02/17 05:40:06;;;;;;;8.70;2.28;;;8.80;99.90;;;;;;5034925;28;20021;-39
2022/02/17 05:42:32;;;;;;;10.45;1.50;;;8.80;99.90;;;;;;5035726;28;20079;-38
2022/02/17 05:44:58;;;;;;;20.70;3.60;;;8.80;99.90;;;;;;5035096;28;20051;-37
2022/02/17 05:47:24;;;;;;;23.55;3.08;;;8.80;99.90;;;;;;5034262;28;20539;-46
2022/02/17 05:49:49;;;;;;;22.73;2.55;;;8.80;99.90;;;;;;5029127;28;20029;-40
2022/02/17 05:52:15;;;;;;;22.33;2.58;;;8.80;99.90;;;;;;5034788;28;20030;-38
2022/02/17 05:54:40;;;;;;;20.77;2.78;;;8.80;99.90;;;;;;5034868;28;22261;-37
2022/02/17 05:57:06;;;;;;;13.10;2.10;;;8.80;99.90;;;;;;5033930;28;20021;-38
2022/02/17 05:59:32;;;;;;;14.93;1.90;;;8.80;99.90;;;;;;5032925;28;20029;-37
2022/02/17 06:02:00;;;;;;;27.33;3.38;;;8.80;99.90;;;;;;5015690;28;20030;-38
2022/02/17 06:04:26;;;;;;;14.38;1.92;;;8.90;99.90;;;;;;5033722;28;20025;-38
2022/02/17 06:06:51;;;;;;;18.80;2.45;;;8.90;99.90;;;;;;5030156;28;20025;-38
2022/02/17 06:09:17;;;;;;;17.58;2.45;;;8.90;99.90;;;;;;5018873;28;20474;-39
2022/02/17 06:11:43;;;;;;;18.33;2.25;;;9.00;99.90;;;;;;5015433;28;20493;-40
2022/02/17 06:14:08;;;;;;;15.13;3.03;;;9.00;99.90;;;;;;5021490;28;20022;-62
2022/02/17 06:16:34;;;;;;;15.15;2.00;;;9.00;99.90;;;;;;5034799;28;20032;-40
2022/02/17 06:19:00;;;;;;;14.30;3.33;;;9.10;99.90;;;;;;5017692;28;20025;-46
2022/02/17 06:21:25;;;;;;;11.50;1.75;;;9.10;99.90;;;;;;5029747;28;20022;-61
2022/02/17 06:23:51;;;;;;;9.45;1.60;;;9.10;99.90;;;;;;5021143;28;20042;-38
2022/02/17 06:26:18;;;;;;;22.88;2.05;;;9.10;99.90;;;;;;5030541;28;20036;-41
2022/02/17 06:28:44;;;;;;;10.43;1.42;;;9.10;99.90;;;;;;5033490;28;20033;-39
2022/02/17 06:31:10;;;;;;;23.52;2.50;;;9.10;99.90;;;;;;5022956;28;20032;-39
2022/02/17 06:33:36;;;;;;;9.98;2.13;;;9.10;99.90;;;;;;5034039;28;20139;-39
2022/02/17 06:36:01;;;;;;;13.50;1.80;;;9.00;99.90;;;;;;5029462;28;20018;-39
2022/02/17 06:38:27;;;;;;;9.05;1.58;;;9.00;99.90;;;;;;5020562;28;20044;-38
2022/02/17 06:40:53;;;;;;;14.85;1.88;;;9.10;99.90;;;;;;5032310;28;20028;-39
2022/02/17 06:43:19;;;;;;;7.78;1.77;;;9.00;99.90;;;;;;5032505;28;20029;-40
2022/02/17 06:45:44;;;;;;;13.45;1.73;;;9.00;99.90;;;;;;5031426;28;20474;-40
2022/02/17 06:48:10;;;;;;;7.68;1.48;;;8.90;99.90;;;;;;5026304;28;20026;-37
2022/02/17 06:50:36;;;;;;;7.70;1.60;;;8.90;99.90;;;;;;5014752;28;20040;-38
2022/02/17 06:53:02;;;;;;;10.02;1.80;;;8.90;99.90;;;;;;5015542;28;20045;-38
2022/02/17 06:55:28;;;;;;;8.70;1.27;;;8.90;99.90;;;;;;5027835;28;20033;-37
2022/02/17 06:57:54;;;;;;;19.20;2.50;;;8.90;99.90;;;;;;5026721;28;20442;-45
2022/02/17 07:00:20;;;;;;;15.10;3.05;;;8.90;99.90;;;;;;5030113;28;20025;-39
2022/02/17 07:02:54;;;;;;;9.50;1.92;;;8.80;99.90;;;;;;5014777;28;20033;-38
2022/02/17 07:05:21;;;;;;;7.95;1.48;;;8.80;99.90;;;;;;5030721;28;20022;-38
2022/02/17 07:07:47;;;;;;;17.58;2.78;;;8.80;99.90;;;;;;5027480;28;20386;-40
2022/02/17 07:10:12;;;;;;;19.50;3.00;;;8.80;99.90;;;;;;5020554;28;20053;-38
2022/02/17 07:12:43;;;;;;;17.92;3.40;;;8.80;99.90;;;;;;5026272;28;20060;-38
2022/02/17 07:15:09;;;;;;;16.92;2.80;;;8.80;99.90;;;;;;5014424;28;20129;-38
2022/02/17 07:17:36;;;;;;;20.17;2.00;;;8.90;99.90;;;;;;5024407;28;20065;-39
2022/02/17 07:20:02;;;;;;;11.10;1.55;;;8.90;99.90;;;;;;5021763;28;20538;-55
2022/02/17 07:22:27;;;;;;;9.25;2.00;;;8.90;99.90;;;;;;5028801;28;20385;-40
2022/02/17 07:24:53;;;;;;;15.75;3.20;;;9.00;99.90;;;;;;5015328;28;20030;-40
2022/02/17 07:27:18;;;;;;;13.52;1.52;;;9.00;99.90;;;;;;5030349;28;20076;-38
2022/02/17 07:29:44;;;;;;;14.32;1.60;;;9.00;99.90;;;;;;5024661;28;20105;-37
2022/02/17 07:32:11;;;;;;;8.48;2.28;;;9.00;99.90;;;;;;5029373;28;20045;-39
2022/02/17 07:34:37;;;;;;;6.60;2.20;;;9.00;99.90;;;;;;5019232;28;20477;-37
2022/02/17 07:37:03;;;;;;;15.98;1.33;;;8.90;99.90;;;;;;5017885;28;20022;-37
2022/02/17 07:39:29;;;;;;;12.50;3.05;;;9.00;99.90;;;;;;5013736;28;20037;-39
2022/02/17 07:41:55;;;;;;;18.33;3.78;;;9.00;99.90;;;;;;5031100;28;20533;-39
2022/02/17 07:44:25;;;;;;;20.08;2.47;;;9.00;99.90;;;;;;5032033;28;20079;-39
2022/02/17 07:46:51;;;;;;;8.65;2.25;;;9.00;99.90;;;;;;5033045;28;20033;-39
2022/02/17 07:49:17;;;;;;;14.45;1.67;;;9.00;99.90;;;;;;5032150;28;20037;-39
2022/02/17 07:51:43;;;;;;;12.25;1.88;;;8.90;99.90;;;;;;5032768;28;20033;-39
2022/02/17 07:54:09;;;;;;;6.05;1.15;;;8.90;99.90;;;;;;5028330;28;20017;-41
2022/02/17 07:56:35;;;;;;;8.98;1.13;;;8.80;99.90;;;;;;5018092;28;20485;-46
2022/02/17 07:59:00;;;;;;;15.82;1.52;;;8.80;99.90;;;;;;5027405;28;20065;-38
2022/02/17 08:01:26;;;;;;;10.35;1.20;;;8.90;99.90;;;;;;5028971;28;20549;-40
2022/02/17 08:03:53;;;;;;;12.30;1.45;;;8.90;99.90;;;;;;5029899;28;20048;-39
2022/02/17 08:06:19;;;;;;;15.45;1.13;;;8.90;99.90;;;;;;5027999;28;20029;-43
2022/02/17 08:08:48;;;;;;;15.32;2.08;;;9.00;99.90;;;;;;5026225;28;20029;-41
2022/02/17 08:11:15;;;;;;;6.47;2.20;;;9.00;99.90;;;;;;5028934;28;20033;-38
2022/02/17 08:13:40;;;;;;;11.90;1.45;;;9.00;99.90;;;;;;5028316;28;20037;-42
2022/02/17 08:16:06;;;;;;;9.48;1.63;;;9.00;99.90;;;;;;5032294;28;20020;-39
2022/02/17 08:18:32;;;;;;;9.45;1.73;;;9.10;99.90;;;;;;5028453;28;20028;-40
2022/02/17 08:20:57;;;;;;;11.63;1.92;;;9.10;99.90;;;;;;5032903;28;20029;-56
2022/02/17 08:23:23;;;;;;;15.70;1.95;;;9.10;99.90;;;;;;5036863;28;20502;-39
2022/02/17 08:25:50;;;;;;;11.13;2.15;;;9.00;99.90;;;;;;5023731;28;20112;-39
2022/02/17 08:28:16;;;;;;;16.08;1.63;;;9.00;99.90;;;;;;5019641;28;20033;-38
2022/02/17 08:30:42;;;;;;;6.65;1.08;;;9.10;99.90;;;;;;5025933;28;20470;-40
2022/02/17 08:33:08;;;;;;;14.52;1.55;;;9.20;99.90;;;;;;5019600;28;20029;-51
2022/02/17 08:35:33;;;;;;;4.68;1.23;;;9.20;99.90;;;;;;5031996;28;20025;-39
2022/02/17 08:38:00;;;;;;;20.27;1.83;;;9.20;99.90;;;;;;5023560;28;20029;-38
2022/02/17 08:40:27;;;;;;;10.50;2.42;;;9.10;99.90;;;;;;5024844;28;20474;-39
2022/02/17 08:42:53;;;;;;;12.30;1.17;;;9.10;99.90;;;;;;5034793;28;20026;-38
2022/02/17 08:45:19;;;;;;;8.35;1.30;;;9.20;99.90;;;;;;5030003;28;20026;-40
2022/02/17 08:47:45;;;;;;;9.93;1.00;;;9.10;99.90;;;;;;5018258;28;20071;-40
2022/02/17 08:50:11;;;;;;;7.60;1.48;;;9.10;99.90;;;;;;5027460;28;20030;-39
2022/02/17 08:52:39;;;;;;;4.00;1.60;;;9.20;99.90;;;;;;5025536;28;20029;-38
2022/02/17 08:55:08;;;;;;;8.43;1.73;;;9.20;99.90;;;;;;5019269;28;20549;-40
2022/02/17 08:57:33;;;;;;;9.35;1.35;;;9.20;99.90;;;;;;5019236;28;20037;-40
2022/02/17 08:59:59;;;;;;;10.98;1.38;;;9.20;99.90;;;;;;5029458;28;20323;-39
2022/02/17 09:02:25;;;;;;;11.45;1.55;;;9.20;99.90;;;;;;5026859;28;20029;-41
2022/02/17 09:04:50;;;;;;;8.73;1.05;;;9.10;99.90;;;;;;5036431;28;20025;-39
2022/02/17 09:07:16;;;;;;;8.82;1.88;;;9.10;99.90;;;;;;5026752;28;20528;-40
2022/02/17 09:09:41;;;;;;;5.28;1.60;;;9.00;99.90;;;;;;5020671;28;20108;-39
2022/02/17 09:12:08;;;;;;;5.07;1.20;;;9.10;99.90;;;;;;5024249;28;20034;-41
2022/02/17 09:14:33;;;;;;;9.88;1.35;;;9.10;99.90;;;;;;5020140;28;20025;-38
2022/02/17 09:16:59;;;;;;;8.10;1.88;;;9.20;99.90;;;;;;5019254;28;20470;-40
2022/02/17 09:19:25;;;;;;;9.25;1.30;;;9.10;99.90;;;;;;5019265;28;20028;-51
2022/02/17 09:21:51;;;;;;;3.63;0.70;;;9.20;99.90;;;;;;5026368;28;20104;-40
2022/02/17 09:24:17;;;;;;;12.45;1.13;;;9.20;99.90;;;;;;5022538;28;20470;-40
2022/02/17 09:26:45;;;;;;;13.00;1.33;;;9.30;99.90;;;;;;5017699;28;20037;-39
2022/02/17 09:29:11;;;;;;;;;;;9.10;99.90;;;;;;5036065;28;20032;-41
2022/02/17 09:31:36;;;;;;;7.25;0.90;;;9.20;99.90;;;;;;5023239;28;20377;-39
2022/02/17 09:34:02;;;;;;;12.57;1.13;;;9.20;99.90;;;;;;5027095;28;20018;-40
2022/02/17 09:36:28;;;;;;;4.35;0.98;;;9.20;99.90;;;;;;5028877;28;20021;-39
2022/02/17 09:38:55;;;;;;;10.40;2.00;;;9.30;99.90;;;;;;5026813;28;20413;-39
2022/02/17 09:41:21;;;;;;;5.23;1.17;;;9.30;99.90;;;;;;5024812;28;20018;-39
2022/02/17 09:43:49;;;;;;;19.77;1.92;;;9.30;99.90;;;;;;5032605;28;20291;-39
2022/02/17 09:46:23;;;;;;;14.75;2.08;;;9.50;99.90;;;;;;5033462;28;20033;-38
2022/02/17 09:48:56;;;;;;;13.05;1.52;;;9.60;99.90;;;;;;5034865;28;20034;-39
2022/02/17 09:51:25;;;;;;;7.32;1.08;;;9.80;99.90;;;;;;5034434;28;20132;-37
2022/02/17 09:53:51;;;;;;;13.88;1.75;;;9.80;99.90;;;;;;5035051;28;20037;-40
2022/02/17 09:56:18;;;;;;;12.98;2.05;;;9.80;99.90;;;;;;5033802;28;20478;-39
2022/02/17 09:58:44;;;;;;;8.65;1.52;;;9.90;99.90;;;;;;5034670;28;20022;-40
2022/02/17 10:01:17;;;;;;;7.47;2.15;;;9.80;99.90;;;;;;5028676;28;20080;-47
2022/02/17 10:03:43;;;;;;;10.43;2.08;;;9.80;99.90;;;;;;5025734;28;20026;-37
2022/02/17 10:06:15;;;;;;;9.18;1.33;;;9.80;99.90;;;;;;5044530;28;20053;-42
2022/02/17 10:08:41;;;;;;;10.60;1.83;;;9.70;99.90;;;;;;5030460;28;20052;-35
2022/02/17 10:11:09;;;;;;;4.63;0.80;;;9.80;99.90;;;;;;5017622;28;20080;-36
2022/02/17 10:13:35;;;;;;;7.38;0.93;;;9.70;99.90;;;;;;5015284;28;20025;-37
2022/02/17 10:16:01;;;;;;;14.20;2.53;;;9.70;99.90;;;;;;5026868;28;20033;-42
2022/02/17 10:18:28;;;;;;;15.13;1.48;;;9.70;99.90;;;;;;5031870;28;20013;-39
2022/02/17 10:20:59;;;;;;;10.70;1.23;;;9.70;99.90;;;;;;5029060;28;20382;-39
2022/02/17 10:23:27;;;;;;;4.63;1.27;;;9.70;99.90;;;;;;5017973;28;20074;-38
2022/02/17 10:26:11;;;;;;;5.95;1.17;;;9.70;99.90;;;;;;5023152;28;20481;-41
2022/02/17 10:28:42;;;;;;;4.20;1.33;;;9.70;99.90;;;;;;5020395;28;20443;-40
2022/02/17 10:31:21;;;;;;;7.10;1.40;;;9.80;99.90;;;;;;5028303;28;20029;-38
2022/02/17 10:33:52;;;;;;;3.67;0.93;;;9.80;99.90;;;;;;5024309;28;20493;-39
2022/02/17 10:36:35;;;;;;;16.33;1.67;;;9.90;99.90;;;;;;5029069;28;20049;-38
2022/02/17 10:39:12;;;;;;;4.68;1.65;;;9.90;99.90;;;;;;5025702;28;20060;-38
2022/02/17 10:41:50;;;;;;;13.57;1.58;;;9.90;99.90;;;;;;5022225;28;20032;-38
2022/02/17 10:44:19;;;;;;;6.10;1.70;;;10.10;99.90;;;;;;5032552;28;20029;-38
2022/02/17 10:46:44;;;;;;;13.27;2.08;;;10.20;99.90;;;;;;5022803;28;20484;-49
2022/02/17 10:49:19;;;;;;;5.72;1.23;;;10.20;99.90;;;;;;5031825;28;20037;-38
2022/02/17 10:51:45;;;;;;;11.98;2.47;;;10.20;99.90;;;;;;5032587;28;20482;-38
2022/02/17 10:54:11;;;;;;;7.55;1.00;;;10.20;99.90;;;;;;5032275;28;20021;-40
2022/02/17 10:56:40;;;;;;;5.35;1.05;;;10.20;99.90;;;;;;5033375;28;20108;-39
2022/02/17 11:01:53;;;;;;;15.88;2.05;;;10.20;99.90;;;;;;5028662;28;20031;-40
2022/02/17 11:04:19;;;;;;;4.80;1.35;;;10.20;99.90;;;;;;5031208;28;20524;-40
2022/02/17 11:06:45;;;;;;;8.43;1.17;;;10.20;99.90;;;;;;5031936;28;20032;-41
2022/02/17 11:09:12;;;;;;;4.13;0.85;;;10.20;99.90;;;;;;5030166;28;20034;-40
2022/02/17 11:11:38;;;;;;;3.85;1.00;;;10.30;99.90;;;;;;5033111;28;20124;-41
2022/02/17 11:14:03;;;;;;;7.65;1.05;;;10.30;99.90;;;;;;5032735;28;20482;-39
2022/02/17 11:16:29;;;;;;;5.07;1.13;;;10.30;99.90;;;;;;5030359;28;20032;-39
2022/02/17 11:18:57;;;;;;;14.43;1.00;;;10.40;99.90;;;;;;5018253;28;20021;-40
2022/02/17 11:21:23;;;;;;;5.35;1.00;;;10.50;99.90;;;;;;5032780;28;20040;-42
2022/02/17 11:23:48;;;;;;;6.63;1.23;;;10.50;99.90;;;;;;5031511;28;20038;-40
2022/02/17 11:26:28;;;;;;;6.57;1.23;;;10.30;99.90;;;;;;5031453;28;20036;-40
2022/02/17 11:28:53;;;;;;;5.90;0.70;;;10.30;99.90;;;;;;5026731;28;20393;-40
2022/02/17 11:31:19;;;;;;;12.73;1.77;;;10.30;99.90;;;;;;5032517;28;20025;-39
2022/02/17 11:33:56;;;;;;;12.18;1.85;;;10.40;99.90;;;;;;5015516;28;20030;-39
2022/02/17 11:36:30;;;;;;;12.60;1.27;;;10.20;99.90;;;;;;5013491;28;20018;-40
2022/02/17 11:39:09;;;;;;;7.50;1.17;;;10.20;99.90;;;;;;5013888;28;20114;-39
2022/02/17 11:41:37;;;;;;;8.00;1.15;;;10.30;99.90;;;;;;5013771;28;20552;-39
2022/02/17 11:44:21;;;;;;;8.10;1.20;;;10.50;99.90;;;;;;5013621;28;20416;-39
2022/02/17 11:46:52;;;;;;;11.07;1.92;;;10.70;99.90;;;;;;5013587;28;20022;-39
2022/02/17 11:49:30;;;;;;;6.05;1.40;;;10.70;99.90;;;;;;5028904;28;20022;-44
2022/02/17 11:52:09;;;;;;;7.55;0.98;;;10.70;99.90;;;;;;5020689;28;20474;-42
2022/02/17 11:54:34;;;;;;;10.55;1.48;;;10.50;99.90;;;;;;5032562;28;20551;-40
2022/02/17 11:57:00;;;;;;;12.57;1.90;;;10.40;99.90;;;;;;5029178;28;20017;-41
2022/02/17 11:59:31;;;;;;;6.65;1.13;;;10.30;99.90;;;;;;5016286;28;20032;-46
2022/02/17 12:01:59;;;;;;;8.00;0.73;;;10.20;99.90;;;;;;5013204;28;20034;-42
2022/02/17 12:04:32;;;;;;;12.07;1.73;;;10.20;99.90;;;;;;5018129;28;20055;-43
2022/02/17 12:06:58;;;;;;;10.73;2.53;;;10.20;99.90;;;;;;5027184;28;20025;-39
2022/02/17 12:09:41;;;;;;;9.13;1.20;;;10.40;99.90;;;;;;5024931;28;20029;-40
2022/02/17 12:12:09;;;;;;;8.63;1.50;;;10.50;99.90;;;;;;5032584;28;20025;-40
2022/02/17 12:14:45;;;;;;;11.85;1.88;;;10.40;99.90;;;;;;5016809;28;20029;-39
2022/02/17 12:17:11;;;;;;;6.00;0.88;;;10.50;99.90;;;;;;5012940;28;20033;-40
2022/02/17 12:19:36;;;;;;;4.93;1.10;;;10.60;99.90;;;;;;5013281;28;20018;-56
2022/02/17 12:22:09;;;;;;;13.82;1.45;;;10.50;99.90;;;;;;5011592;28;20123;-40
2022/02/17 12:24:38;;;;;;;7.78;1.52;;;10.60;99.90;;;;;;5012692;28;20046;-40
2022/02/17 12:27:04;;;;;;;12.23;1.52;;;10.50;99.90;;;;;;5011607;28;20062;-38
2022/02/17 12:29:36;;;;;;;6.80;1.23;;;10.40;99.90;;;;;;5012874;28;20033;-38
2022/02/17 12:32:07;;;;;;;14.35;1.58;;;10.30;99.90;;;;;;5029844;28;20029;-41
2022/02/17 12:34:34;;;;;;;7.03;0.77;;;10.30;99.90;;;;;;5032566;28;20109;-38
2022/02/17 12:37:00;;;;;;;8.68;1.35;;;10.40;99.90;;;;;;5032631;28;20014;-40
2022/02/17 12:39:31;;;;;;;5.40;0.88;;;10.40;99.90;;;;;;5032374;28;20036;-39
2022/02/17 12:42:05;;;;;;;11.73;1.17;;;10.50;99.90;;;;;;5030610;28;20032;-42
2022/02/17 12:44:35;;;;;;;9.52;1.58;;;10.70;99.90;;;;;;5031524;28;20041;-43
2022/02/17 12:47:14;;;;;;;3.45;0.98;;;10.70;99.90;;;;;;5032718;28;20096;-42
2022/02/17 12:49:40;;;;;;;10.73;1.63;;;10.60;99.90;;;;;;5030544;28;20486;-38